This is the latest recevied weather packets stored in our database for station/object KH2PM. If no packets are shown the sender has not sent any weather packets the latest 10 day(s).
| Time | Temp. | Humidity | Pressure | Rain* | Wind** | Luminosity | Snow |
|---|---|---|---|---|---|---|---|
| 1777656003 | 16.11° C | 58% | 1015.9 hPa | 0 mm | - | - | - |
| 1777655704 | 16.11° C | 55% | 1016.1 hPa | 0 mm | - | - | - |
| 1777655104 | 16.11° C | 54% | 1016.1 hPa | 0 mm | - | - | - |
| 1777653904 | 16.11° C | 56% | 1016.2 hPa | 0 mm | - | - | - |
| 1777653604 | 16.11° C | 56% | 1016.3 hPa | 0 mm | - | - | - |
| 1777652404 | 16.11° C | 53% | 1016.3 hPa | 0.25 mm | - | - | - |
| 1777651804 | 15.56° C | 56% | 1016.6 hPa | 0.25 mm | - | - | - |
| 1777647304 | 13.33° C | 64% | 1016.8 hPa | 0 mm | - | - | - |
| 1777645805 | 12.78° C | 63% | 1016.6 hPa | 0 mm | - | - | - |
| 1777644907 | 12.22° C | 62% | 1016.8 hPa | 0 mm | - | - | - |
| 1777643404 | 12.22° C | 66% | 1016.6 hPa | 0 mm | - | - | - |
| 1777642504 | 12.22° C | 67% | 1016.4 hPa | 0 mm | - | - | - |
| 1777642205 | 11.67° C | 68% | 1016.5 hPa | 0 mm | - | - | - |
| 1777638904 | 12.78° C | 58% | 1016.5 hPa | 0 mm | - | - | - |
| 1777638304 | 12.78° C | 59% | 1016.2 hPa | 0 mm | - | - | - |
| 1777637103 | 12.22° C | 58% | 1016.2 hPa | 0 mm | - | - | - |
| 1777635304 | 12.22° C | 61% | 1016.1 hPa | 0 mm | - | - | - |
| 1777635005 | 12.22° C | 61% | 1016.2 hPa | 0 mm | - | - | - |
| 1777634106 | 12.22° C | 62% | 1016.1 hPa | 0 mm | - | - | - |
| 1777633804 | 12.22° C | 61% | 1016 hPa | 0 mm | - | - | - |
| 1777633205 | 12.22° C | 61% | 1015.7 hPa | 0 mm | - | - | - |
| 1777632904 | 12.22° C | 62% | 1015.5 hPa | 0 mm | - | - | - |
| 1777632604 | 12.22° C | 62% | 1015.5 hPa | 0 mm | - | - | - |
| 1777631405 | 12.22° C | 62% | 1015.7 hPa | 0 mm | - | - | - |
| 1777630803 | 12.22° C | 64% | 1015.6 hPa | 0 mm | - | - | - |
* Rain latest hour (hover to see other rain measurements)
** Current wind speed in m/s (hover to see current wind gust speed)